Weather observations for the past three days for
Norman / Max Westheimer
Imperial (Metric)
Date Time (cdt) Wind (mph) Vis. (mi.) Weather Sky Cond. Temperature (ºF) Relative Humidity Wind Chill (°F) Heat Index (°F) Pressure Precipitation (in)
Air Dwpt 6 hour altimeter (in) sea level (mb) 1 hr 3 hr 6 hr
Max. Min.
31 10:45 S 15 10.00 Fair CLR 93.2 64.4 39% 95 30.03 0.0
31 09:45 S 9 10.00 Fair CLR 87.8 64.4 46% 89 30.03 0.0
31 08:45 SE 5 10.00 Fair CLR 82.4 62.6 51% 83 30.03 0.0
31 07:45 Calm 10.00 Fair CLR 77 60.8 57% 79 30.01 0.0
31 07:35 S 5 10.00 Fair CLR 75.7 60.8 60% 78 30 0.0
31 07:15 S 7 10.00 Fair CLR 74.7 60.6 62% 29.99 0.0
31 06:55 S 7 10.00 Fair CLR 74.3 60.4 83.8 73.9 62% 29.99 0.0
31 06:45 SE 7 10.00 Fair CLR 73.4 60.8 65% 29.98 0.0
31 06:35 S 7 10.00 Fair CLR 73.9 60.4 63% 29.98 0.0
31 06:15 S 8 10.00 Fair CLR 74.3 60.4 62% 29.98 0.0
31 05:55 S 8 10.00 Fair CLR 74.8 60.4 61% 29.97 0.0
31 05:35 S 8 10.00 Fair CLR 75.4 60.3 60% 78 29.97 0.0
31 05:15 S 7 10.00 Fair CLR 75.9 60.1 58% 78 29.97 0.0
31 04:55 S 7 10.00 Fair CLR 75.6 60.3 59% 78 29.96 0.0
31 04:35 S 8 10.00 Fair CLR 76.1 59.9 57% 78 29.96 0.0
31 04:15 S 7 10.00 Fair CLR 76.5 59.5 56% 78 29.96 0.0
31 03:55 S 7 10.00 Fair CLR 77 59.5 55% 79 29.95 0.0
31 03:35 S 8 10.00 Fair CLR 78.1 59.5 53% 79 29.95 0.0
31 03:15 S 8 10.00 Fair CLR 79.3 59.2 50% 80 29.95 0.0
31 02:55 S 10 10.00 Fair CLR 80.1 59.2 49% 81 29.95 0.0
31 02:35 S 10 10.00 Fair CLR 81 58.8 47% 81 29.95 0.0
31 02:15 S 10 10.00 Fair CLR 81.3 58.8 46% 82 29.95 0.0
31 01:55 S 12 10.00 Fair CLR 82.4 58.6 45% 82 29.95 0.0
31 01:35 S 10 10.00 Fair CLR 82.9 58.6 44% 83 29.95 0.0
31 01:15 S 10 10.00 Fair CLR 83.5 58.8 43% 83 29.95 0.0
31 00:55 S 12 10.00 Fair CLR 83.8 59.2 98.8 83.7 43% 84 29.95 0.0
31 00:35 S 10 10.00 Fair CLR 84.2 59.2 43% 84 29.94 0.0
31 00:15 S 12 10.00 Fair CLR 84.7 59.4 42% 84 29.94 0.0
30 23:55 S 12 10.00 Fair CLR 85.5 59.4 41% 85 29.94 0.0
30 23:35 SE 12 10.00 Fair CLR 86.2 59.5 41% 86 29.93 0.0
30 23:15 S 12 10.00 Fair CLR 86.9 59.5 40% 86 29.94 0.0
30 22:55 SE 12 10.00 Fair CLR 87.4 59.4 39% 87 29.94 0.0
30 22:35 SE 12 10.00 Fair CLR 88 59.2 38% 87 29.93 0.0
30 22:15 SE 12 10.00 Fair CLR 89.1 58.8 36% 88 29.93 0.0
30 21:55 S 12 10.00 Fair CLR 89.6 58.6 35% 89 29.92 0.0
30 20:45 SE 14 10.00 Fair CLR 91.4 60.8 36% 91 29.89 0.0
30 19:45 SE 16 10.00 Fair CLR 96.8 57.2 27% 96 29.88 0.0
30 18:45 SE 15 10.00 Fair CLR 98.6 57.2 25% 98 29.88 0.0
30 17:45 S 15 10.00 Fair CLR 100.4 57.2 24% 100 29.88 0.0
30 16:45 SE 12 10.00 Fair CLR 100.4 57.2 24% 100 29.88 0.0
30 15:45 S 17 G 22 10.00 Partly Cloudy SCT095 102.2 57.2 23% 102 29.9 0.0
30 14:45 S 15 G 25 10.00 Partly Cloudy SCT090 100.4 57.2 24% 100 29.92 0.0
30 13:45 S 14 G 22 10.00 Fair CLR 100.4 57.2 24% 100 29.94 0.0
30 12:45 S 17 G 24 10.00 Fair CLR 98.6 59 27% 98 29.96 0.0
30 11:45 S 17 G 22 10.00 Fair CLR 96.8 60.8 30% 97 29.98 0.0
30 09:45 S 14 10.00 Fair CLR 87.8 62.6 43% 88 30 0.0
30 08:45 S 12 10.00 Fair CLR 80.6 62.6 54% 82 30 0.0
30 07:45 SE 9 10.00 Fair CLR 77 60.8 57% 79 29.99 0.0
30 07:35 S 9 10.00 Fair CLR 76.8 60.6 57% 79 29.99 0.0
30 07:15 S 9 10.00 Fair CLR 76.6 60.4 57% 78 29.99 0.0
30 06:55 S 9 10.00 Fair CLR 76.6 60.3 84.4 76.6 57% 78 29.98 0.0
30 06:46 SE 9 10.00 Fair CLR 77 60.8 57% 79 29.98 0.0
30 06:35 SE 10 10.00 Fair CLR 77.4 60.1 55% 79 29.98 0.0
30 06:15 SE 7 10.00 Fair CLR 77 60.1 56% 79 29.98 0.0
30 05:55 S 7 10.00 Fair CLR 77.9 60.1 54% 79 29.98 0.0
30 05:35 S 8 10.00 Fair CLR 78.4 59.9 53% 80 29.97 0.0
30 05:15 SE 10 10.00 Fair CLR 79 60.1 52% 80 29.96 0.0
30 04:55 SE 10 10.00 Fair CLR 79.5 60.1 52% 81 29.96 0.0
30 04:35 S 10 10.00 Fair CLR 79.7 60.1 51% 81 29.96 0.0
30 04:15 S 12 10.00 Fair CLR 79.9 60.1 51% 81 29.96 0.0
30 03:55 S 10 10.00 Fair CLR 80.2 59.9 50% 81 29.96 0.0
30 03:35 S 13 G 18 10.00 Fair CLR 81 59.7 49% 82 29.96 0.0
30 03:15 S 15 G 20 10.00 Fair CLR 81.5 59.5 47% 82 29.95 0.0
30 02:55 SE 14 10.00 Fair CLR 82 59.5 47% 82 29.95 0.0
30 02:35 SE 13 10.00 Fair CLR 81.9 59.5 47% 82 29.96 0.0
30 02:15 SE 13 10.00 Fair CLR 82.2 59.5 46% 82 29.96 0.0
30 01:55 SE 15 10.00 Fair CLR 82.9 59.5 45% 83 29.96 0.0
30 01:35 SE 13 10.00 Fair CLR 83.3 59.2 44% 83 29.96 0.0
30 01:15 SE 12 10.00 Fair CLR 83.7 59.2 44% 84 29.96 0.0
30 00:55 S 12 10.00 Fair CLR 84.4 59 97.7 84.4 42% 84 29.96 0.0
30 00:35 SE 12 10.00 Fair CLR 85.1 59 41% 85 29.96 0.0
30 00:15 SE 13 10.00 Fair CLR 85.5 59.2 41% 85 29.96 0.0
29 23:55 SE 12 10.00 Fair CLR 85.8 59.5 41% 85 29.96 0.0
29 23:35 SE 12 10.00 Fair CLR 85.8 59.5 41% 85 29.96 0.0
29 23:15 S 14 10.00 Fair CLR 86.5 59.5 40% 86 29.96 0.0
29 22:55 SE 12 10.00 Fair CLR 87.6 59.5 39% 87 29.96 0.0
29 22:35 SE 12 10.00 Fair CLR 88 59.4 38% 87 29.96 0.0
29 22:15 SE 14 10.00 Fair CLR 88.7 59 37% 88 29.95 0.0
29 21:55 SE 13 10.00 Fair CLR 89.8 58.6 35% 89 29.94 0.0
29 19:45 SE 14 10.00 Fair CLR 95 57.2 28% 94 29.91 0.0
29 18:45 SE 12 10.00 Fair CLR 98.6 57.2 25% 98 29.91 0.0
29 17:45 SE 13 10.00 Fair CLR 100.4 57.2 24% 100 29.91 0.0
29 16:45 SE 14 10.00 Fair CLR 98.6 57.2 25% 98 29.93 0.0
29 15:45 SE 12 10.00 Fair CLR 98.6 57.2 25% 98 29.96 0.0
29 14:45 S 10 G 17 10.00 Partly Cloudy SCT090 100.4 60.8 27% 101 29.98 0.0
29 13:45 S 12 10.00 Fair CLR 98.6 62.6 31% 100 30 0.0
29 12:45 S 13 10.00 Fair CLR 96.8 62.6 32% 98 30.03 0.0
29 11:45 S 9 10.00 Fair CLR 93.2 64.4 39% 95 30.04 0.0
29 10:45 SE 12 10.00 Fair CLR 89.6 64.4 43% 91 30.05 0.0
29 09:45 S 12 10.00 Fair CLR 84.2 64.4 51% 86 30.06 0.0
29 08:45 SE 13 10.00 Fair CLR 78.8 62.6 58% 80 30.06 0.0
29 07:45 SE 8 10.00 Fair CLR 75.2 60.8 61% 77 30.06 0.0
29 07:35 SE 8 10.00 Fair CLR 75.7 60.3 59% 78 30.05 0.0
29 07:15 SE 7 10.00 Fair CLR 75.2 59.5 58% 78 30.05 0.0
29 06:55 SE 6 10.00 Fair CLR 75.6 58.8 82.8 75 56% 78 30.05 0.0
29 06:35 S 7 10.00 Fair CLR 75.4 58.3 55% 78 30.05 0.0
29 06:15 S 8 10.00 Fair CLR 75.6 57.6 54% 78 30.04 0.0
29 05:55 SE 9 10.00 Fair CLR 76.5 57.2 51% 78 30.04 0.0
29 05:35 SE 13 10.00 Fair CLR 77.4 56.5 49% 79 30.04 0.0
29 05:15 SE 12 10.00 Fair CLR 77.4 55.9 48% 79 30.04 0.0
29 04:55 SE 13 10.00 Fair CLR 79 55.9 45% 80 30.04 0.0
29 04:35 SE 17 10.00 Fair CLR 79.9 55.8 44% 80 30.03 0.0
29 04:15 SE 15 10.00 Fair CLR 80.1 54.9 42% 80 30.03 0.0
29 03:55 SE 13 10.00 Fair CLR 80.1 53.6 40% 80 30.03 0.0
29 03:35 SE 8 10.00 Fair CLR 80.8 52.7 38% 80 30.03 0.0
29 03:15 SE 10 10.00 Fair CLR 81.3 52.7 37% 81 30.04 0.0
29 02:55 SE 9 10.00 Fair CLR 81.9 52.3 36% 81 30.03 0.0
29 02:35 SE 10 10.00 Fair CLR 82.2 51.6 35% 81 30.03 0.0
29 02:15 SE 10 10.00 Fair CLR 82 50.7 34% 81 30.03 0.0
29 01:55 SE 9 10.00 Fair CLR 81.5 50.4 34% 80 30.04 0.0
29 01:35 SE 8 10.00 Fair CLR 81.1 50.7 35% 80 30.04 0.0
29 01:15 SE 8 10.00 Fair CLR 82.2 50.7 34% 81 30.04 0.0
29 00:55 SE 8 10.00 Fair CLR 82.6 50.5 96.4 82.4 33% 81 30.04 0.0
29 00:35 SE 8 10.00 Fair CLR 82.6 50.4 33% 81 30.04 0.0
29 00:15 E 9 10.00 Fair CLR 83.1 50.2 32% 81 30.04 0.0
28 23:55 E 12 10.00 Fair CLR 83.8 49.8 31% 82 30.04 0.0
28 23:35 E 10 10.00 Fair CLR 84.6 49.5 30% 82 30.04 0.0
28 23:15 E 12 10.00 Fair CLR 84.4 49.8 30% 82 30.04 0.0
28 22:55 E 9 10.00 Fair CLR 84.7 50 30% 83 30.04 0.0
28 22:35 E 10 10.00 Fair CLR 85.3 50.2 30% 83 30.04 0.0
28 22:15 E 10 10.00 Fair CLR 86 50.4 29% 84 30.03 0.0
28 21:55 E 9 10.00 Fair CLR 86.7 50.2 28% 84 30.02 0.0
28 20:45 E 10 10.00 Fair CLR 89.6 51.8 27% 87 30 0.0
28 19:45 E 7 10.00 Fair CLR 93.2 48.2 21% 90 29.99 0.0
28 18:45 E 10 10.00 Fair CLR 96.8 48.2 19% 93 29.99 0.0
28 17:45 E 7 10.00 Fair CLR 98.6 48.2 18% 95 29.99 0.0
28 16:45 E 3 10.00 Fair CLR 98.6 51.8 21% 96 30.01 0.0
28 14:45 E 9 10.00 Fair CLR 98.6 48.2 18% 95 30.05 0.0
28 13:45 S 6 10.00 Fair CLR 96.8 55.4 25% 95 30.07 0.0
28 12:45 E 5 10.00 Fair CLR 93.2 60.8 34% 93 30.12 0.0
28 11:45 SE 7 10.00 Fair CLR 93.2 60.8 34% 93 30.12 0.0
Date Time (cdt) Wind (mph) Vis. (mi.) Weather Sky Cond. Air Dwpt Max. Min. Relative Humidity Wind Chill (°F) Heat Index (°F) altimeter (in) sea level (mb) 1 hr 3 hr 6 hr
6 hour
Temperature (ºF) Pressure Precipitation (in)